createdAt,value
2023-04-19T00:01:32.754Z,11.43
2023-04-19T00:03:59.878Z,10.85
2023-04-19T00:06:30.440Z,9.52
2023-04-19T00:08:57.679Z,10.13
2023-04-19T00:11:25.629Z,10.43
2023-04-19T00:13:52.684Z,12.13
2023-04-19T00:16:19.626Z,11.52
2023-04-19T00:18:46.816Z,10.82
2023-04-19T00:21:13.748Z,13.15
2023-04-19T00:23:40.663Z,13.40
2023-04-19T00:26:07.562Z,14.50
2023-04-19T00:28:35.091Z,11.98
2023-04-19T00:31:02.061Z,13.13
2023-04-19T00:33:29.131Z,12.50
2023-04-19T00:35:57.598Z,10.68
2023-04-19T00:38:24.625Z,13.23
2023-04-19T00:40:51.529Z,14.23
2023-04-19T00:43:19.788Z,13.18
2023-04-19T00:45:48.089Z,15.00
2023-04-19T00:48:15.650Z,11.05
2023-04-19T00:50:44.960Z,14.77
2023-04-19T00:53:12.320Z,13.25
2023-04-19T00:55:39.641Z,12.80
2023-04-19T00:58:08.544Z,14.88
2023-04-19T01:00:37.024Z,12.70
2023-04-19T01:03:04.289Z,12.88
2023-04-19T01:05:31.530Z,14.05
2023-04-19T01:07:58.454Z,13.02
2023-04-19T01:10:25.739Z,12.45
2023-04-19T01:12:52.728Z,16.23
2023-04-19T01:15:20.191Z,13.07
2023-04-19T01:17:49.813Z,13.55
2023-04-19T01:20:16.899Z,13.73
2023-04-19T01:22:44.884Z,14.63
2023-04-19T01:25:12.424Z,15.90
2023-04-19T01:27:40.556Z,11.98
2023-04-19T01:30:08.512Z,12.82
2023-04-19T01:32:35.455Z,14.38
2023-04-19T01:35:02.514Z,15.43
2023-04-19T01:37:30.632Z,12.38
2023-04-19T01:39:57.539Z,14.43
2023-04-19T01:42:24.530Z,14.75
2023-04-19T01:44:51.464Z,14.52
2023-04-19T01:47:19.836Z,14.10
2023-04-19T01:49:46.834Z,13.85
2023-04-19T01:52:16.311Z,14.05
2023-04-19T01:54:43.261Z,12.82
2023-04-19T01:57:10.220Z,13.27
2023-04-19T01:59:37.314Z,15.45
2023-04-19T02:02:08.455Z,12.25
2023-04-19T02:04:35.857Z,11.93
2023-04-19T02:07:02.781Z,12.45
2023-04-19T02:09:29.794Z,16.05
2023-04-19T02:11:56.759Z,16.92
2023-04-19T02:14:23.661Z,13.88
2023-04-19T02:16:50.662Z,11.13
2023-04-19T02:19:18.110Z,11.70
2023-04-19T02:21:45.516Z,10.88
2023-04-19T02:24:14.898Z,10.30
2023-04-19T02:26:42.717Z,11.07
2023-04-19T02:29:09.974Z,14.02
2023-04-19T02:31:38.805Z,11.35
2023-04-19T02:34:09.401Z,11.75
2023-04-19T02:36:36.332Z,13.90
2023-04-19T02:39:03.335Z,11.60
2023-04-19T02:41:30.307Z,10.85
2023-04-19T02:43:57.230Z,14.02
2023-04-19T02:46:24.348Z,12.80
2023-04-19T02:48:51.436Z,13.85
2023-04-19T02:51:18.392Z,10.95
2023-04-19T02:53:45.442Z,9.73
2023-04-19T02:56:12.413Z,14.00
2023-04-19T02:58:39.385Z,11.60
2023-04-19T03:01:07.152Z,12.27
2023-04-19T03:03:34.396Z,11.45
2023-04-19T03:06:02.087Z,10.60
2023-04-19T03:08:30.629Z,10.63
2023-04-19T03:10:58.135Z,10.68
2023-04-19T03:13:25.494Z,10.52
2023-04-19T03:15:53.041Z,11.95
2023-04-19T03:18:22.690Z,9.55
2023-04-19T03:20:50.595Z,11.88
2023-04-19T03:23:17.567Z,10.38
2023-04-19T03:25:46.444Z,11.68
2023-04-19T03:28:30.204Z,10.23
2023-04-19T03:31:23.252Z,14.38
2023-04-19T03:33:53.416Z,7.70
2023-04-19T03:36:26.732Z,11.13
2023-04-19T03:38:53.737Z,9.70
2023-04-19T03:41:25.438Z,7.53
2023-04-19T03:44:01.580Z,9.80
2023-04-19T03:46:31.656Z,11.90
2023-04-19T03:48:59.836Z,9.70
2023-04-19T03:51:28.284Z,9.13
2023-04-19T03:53:55.200Z,9.95
2023-04-19T03:56:22.316Z,12.85
2023-04-19T03:58:51.856Z,9.82
2023-04-19T04:01:20.773Z,11.80
2023-04-19T04:03:48.839Z,9.10
2023-04-19T04:06:16.219Z,12.57
2023-04-19T04:08:43.310Z,8.50
2023-04-19T04:11:10.613Z,9.25
2023-04-19T04:13:37.797Z,7.25
2023-04-19T04:16:12.785Z,8.38
2023-04-19T04:18:40.338Z,6.32
2023-04-19T04:21:10.588Z,7.90
2023-04-19T04:23:41.804Z,8.85
2023-04-19T04:26:14.090Z,8.50
2023-04-19T04:29:06.587Z,9.68
2023-04-19T04:31:36.201Z,9.23
2023-04-19T04:34:03.934Z,7.85
2023-04-19T04:36:33.983Z,9.85
2023-04-19T04:39:02.558Z,9.10
2023-04-19T04:41:31.546Z,10.00
2023-04-19T04:44:12.103Z,9.02
2023-04-19T04:46:41.278Z,9.05
2023-04-19T04:49:10.191Z,10.50
2023-04-19T04:51:37.618Z,8.75
2023-04-19T04:54:05.719Z,9.52
2023-04-19T04:56:32.900Z,9.45
2023-04-19T04:59:00.209Z,9.15
2023-04-19T05:01:32.439Z,9.75
2023-04-19T05:03:59.566Z,19.27
2023-04-19T05:06:27.207Z,8.38
2023-04-19T05:08:54.341Z,11.02
2023-04-19T05:11:30.260Z,7.93
2023-04-19T05:13:57.247Z,8.18
2023-04-19T05:16:24.516Z,9.35
2023-04-19T05:18:51.572Z,7.35
2023-04-19T05:21:18.929Z,9.52
2023-04-19T05:23:45.965Z,6.90
2023-04-19T05:26:15.615Z,5.72
2023-04-19T05:28:45.791Z,8.10
2023-04-19T05:31:21.194Z,8.60
2023-04-19T05:34:05.451Z,8.85
2023-04-19T05:36:33.197Z,7.80
2023-04-19T05:39:00.351Z,7.07
2023-04-19T05:41:27.299Z,7.93
2023-04-19T05:43:54.267Z,5.60
2023-04-19T05:46:21.821Z,5.75
2023-04-19T05:48:48.832Z,6.72
2023-04-19T05:51:28.322Z,6.63
2023-04-19T05:54:07.289Z,6.78
2023-04-19T05:56:34.363Z,6.28
2023-04-19T05:59:01.563Z,5.25
2023-04-19T06:01:28.579Z,7.72
2023-04-19T06:03:56.002Z,7.25
2023-04-19T06:06:24.474Z,6.03
2023-04-19T06:08:54.444Z,4.72
2023-04-19T06:11:28.937Z,7.18
2023-04-19T06:14:02.629Z,5.45
2023-04-19T06:16:29.703Z,6.47
2023-04-19T06:18:57.183Z,5.60
2023-04-19T06:21:24.172Z,4.70
2023-04-19T06:23:51.106Z,8.10
2023-04-19T06:26:18.052Z,4.72
2023-04-19T06:28:45.017Z,5.22
2023-04-19T06:31:12.444Z,3.75
2023-04-19T06:33:39.597Z,3.38
2023-04-19T06:36:06.963Z,9.02
2023-04-19T06:38:33.916Z,7.75
2023-04-19T06:41:00.900Z,3.67
2023-04-19T06:43:27.850Z,4.25
2023-04-19T06:45:59.397Z,4.30
2023-04-19T06:48:26.509Z,8.35
2023-04-19T06:50:54.022Z,3.30
2023-04-19T06:53:21.203Z,8.07
2023-04-19T06:55:48.356Z,5.68
2023-04-19T06:58:15.374Z,8.20
2023-04-19T07:00:42.309Z,11.45
2023-04-19T07:03:09.450Z,3.10
2023-04-19T07:05:36.772Z,4.00
2023-04-19T07:08:03.827Z,4.65
2023-04-19T07:10:30.831Z,4.45
2023-04-19T07:12:57.732Z,3.72
2023-04-19T07:15:24.988Z,7.72
2023-04-19T07:17:52.103Z,3.92
2023-04-19T07:20:19.201Z,2.67
2023-04-19T07:22:46.124Z,6.18
2023-04-19T07:25:13.997Z,3.47
2023-04-19T07:27:40.926Z,4.90
2023-04-19T07:30:08.669Z,5.13
2023-04-19T07:32:36.336Z,5.57
2023-04-19T07:35:03.655Z,4.15
2023-04-19T07:37:30.776Z,3.22
2023-04-19T07:39:57.710Z,9.02
2023-04-19T07:42:25.731Z,4.80
2023-04-19T07:44:52.646Z,5.55
2023-04-19T07:47:19.574Z,2.92
2023-04-19T07:49:46.528Z,5.15
2023-04-19T07:52:13.507Z,3.33
2023-04-19T07:54:40.539Z,5.70
2023-04-19T07:57:07.517Z,2.20
2023-04-19T07:59:34.550Z,2.65
2023-04-19T08:02:01.855Z,6.53
2023-04-19T08:04:29.200Z,1.73
2023-04-19T08:06:56.660Z,2.83
2023-04-19T08:09:23.673Z,2.35
2023-04-19T08:11:50.874Z,7.43
2023-04-19T08:14:30.945Z,2.22
2023-04-19T08:17:19.407Z,6.22
2023-04-19T08:19:50.427Z,2.00
2023-04-19T08:22:18.233Z,3.45
2023-04-19T08:24:45.231Z,2.67
2023-04-19T08:27:12.419Z,2.17
2023-04-19T08:29:39.351Z,3.10
2023-04-19T08:32:07.297Z,2.38
2023-04-19T08:34:38.885Z,1.58
2023-04-19T08:37:07.358Z,2.45
2023-04-19T08:39:35.183Z,2.05
2023-04-19T08:42:13.349Z,1.40
2023-04-19T08:45:25.500Z,2.40
2023-04-19T08:47:58.677Z,2.03
2023-04-19T08:50:33.302Z,2.05
2023-04-19T08:53:16.333Z,1.65
2023-04-19T08:56:06.978Z,3.72
2023-04-19T08:58:57.058Z,1.98
2023-04-19T09:01:34.489Z,1.73
2023-04-19T09:04:27.191Z,2.35
2023-04-19T09:06:55.489Z,2.65
2023-04-19T09:11:59.184Z,5.05
2023-04-19T09:14:28.060Z,1.65
2023-04-19T09:17:12.332Z,1.88
2023-04-19T09:19:50.330Z,1.77
2023-04-19T09:22:18.325Z,8.02
2023-04-19T09:25:22.705Z,2.58
2023-04-19T09:27:37.287Z,3.13
2023-04-19T09:30:06.684Z,1.80
2023-04-19T09:32:49.078Z,5.15
2023-04-19T09:35:16.647Z,1.70
2023-04-19T09:40:24.655Z,2.13
2023-04-19T09:45:31.130Z,3.22
2023-04-19T09:48:09.520Z,1.50
2023-04-19T09:51:05.029Z,2.75
2023-04-19T09:53:34.901Z,1.92
2023-04-19T09:56:03.374Z,2.35
2023-04-19T10:01:13.581Z,1.63
2023-04-19T10:03:45.414Z,1.88
2023-04-19T10:06:37.342Z,1.55
2023-04-19T10:09:05.416Z,1.35
2023-04-19T10:11:38.730Z,2.03
2023-04-19T10:14:10.257Z,1.90
2023-04-19T10:16:39.081Z,2.70
2023-04-19T10:19:11.673Z,2.15
2023-04-19T10:21:40.293Z,2.65
2023-04-19T10:24:09.014Z,2.35
2023-04-19T10:27:12.128Z,1.80
2023-04-19T10:30:00.060Z,2.13
2023-04-19T10:32:41.961Z,3.47
2023-04-19T10:35:10.054Z,3.28
2023-04-19T10:37:41.988Z,2.60
2023-04-19T10:40:09.844Z,2.33
2023-04-19T10:43:15.167Z,3.00
2023-04-19T10:45:42.171Z,2.35
2023-04-19T10:48:35.601Z,5.55
2023-04-19T10:51:16.645Z,2.65
2023-04-19T10:53:51.033Z,1.98
2023-04-19T10:56:34.758Z,3.88
2023-04-19T10:59:07.908Z,3.47
2023-04-19T11:01:44.259Z,4.75
2023-04-19T11:04:13.868Z,3.22
2023-04-19T11:06:53.005Z,2.85
2023-04-19T11:09:42.359Z,3.97
2023-04-19T11:12:15.719Z,3.70
2023-04-19T11:14:46.033Z,5.75
2023-04-19T11:17:25.441Z,2.72
2023-04-19T11:20:03.478Z,3.95
2023-04-19T11:22:34.420Z,4.93
2023-04-19T11:25:10.596Z,2.97
2023-04-19T11:27:39.419Z,4.63
2023-04-19T11:30:23.092Z,6.63
2023-04-19T11:32:55.432Z,4.97
2023-04-19T11:35:27.538Z,2.17
2023-04-19T11:37:56.535Z,3.08
2023-04-19T11:40:26.227Z,2.13
2023-04-19T11:42:56.700Z,2.38
2023-04-19T11:45:35.575Z,2.72
2023-04-19T11:48:07.363Z,4.53
2023-04-19T11:50:45.829Z,2.38
2023-04-19T11:53:19.078Z,4.78
2023-04-19T11:55:52.067Z,4.30
2023-04-19T11:58:29.887Z,3.50
2023-04-19T12:01:26.845Z,2.75
2023-04-19T12:03:56.561Z,4.88
2023-04-19T12:06:33.898Z,1.88
2023-04-19T12:09:09.329Z,4.07
2023-04-19T12:11:49.881Z,3.00
2023-04-19T12:14:21.403Z,3.55
2023-04-19T12:17:11.982Z,3.40
2023-04-19T12:19:47.582Z,4.50
2023-04-19T12:24:52.304Z,2.83
2023-04-19T12:27:19.448Z,2.78
2023-04-19T12:29:46.395Z,4.43
2023-04-19T12:32:16.019Z,2.78
2023-04-19T12:34:43.234Z,6.05
2023-04-19T12:37:10.178Z,5.90
2023-04-19T12:39:37.101Z,2.90
2023-04-19T12:42:06.005Z,5.55
2023-04-19T12:44:33.012Z,1.65
2023-04-19T12:46:59.994Z,2.10
2023-04-19T12:49:27.306Z,2.30
2023-04-19T12:51:57.029Z,4.35
2023-04-19T12:54:24.390Z,3.78
2023-04-19T12:56:51.667Z,3.95
2023-04-19T12:59:19.002Z,6.60
2023-04-19T13:01:46.188Z,3.83
2023-04-19T13:04:13.450Z,1.83
2023-04-19T13:06:40.958Z,2.58
2023-04-19T13:09:14.321Z,1.65
2023-04-19T13:11:42.145Z,7.10
2023-04-19T13:14:09.147Z,2.95
2023-04-19T13:16:36.135Z,3.75
2023-04-19T13:19:03.125Z,4.45
2023-04-19T13:21:30.538Z,1.73
2023-04-19T13:24:00.628Z,2.15
2023-04-19T13:26:28.542Z,4.70
2023-04-19T13:28:56.367Z,2.90
2023-04-19T13:31:23.478Z,3.25
2023-04-19T13:33:50.559Z,4.80
2023-04-19T13:36:17.987Z,3.00
2023-04-19T13:38:46.636Z,3.20
2023-04-19T13:41:14.118Z,3.13
2023-04-19T13:43:41.315Z,4.50
2023-04-19T13:46:08.339Z,2.17
2023-04-19T13:48:35.324Z,2.47
2023-04-19T13:51:02.483Z,2.53
2023-04-19T13:53:29.677Z,6.78
2023-04-19T13:55:57.084Z,5.80
2023-04-19T13:58:27.095Z,5.47
2023-04-19T14:00:54.200Z,1.75
2023-04-19T14:03:23.015Z,3.58
2023-04-19T14:05:50.301Z,2.38
2023-04-19T14:08:17.263Z,3.45
2023-04-19T14:10:44.400Z,3.53
2023-04-19T14:13:11.464Z,2.17
2023-04-19T14:15:38.568Z,3.55
2023-04-19T14:18:05.579Z,6.10
2023-04-19T14:20:32.620Z,4.53
2023-04-19T14:23:00.313Z,5.13
2023-04-19T14:25:27.475Z,3.33
2023-04-19T14:27:54.392Z,4.75
2023-04-19T14:30:21.419Z,5.22
2023-04-19T14:32:48.466Z,6.22
2023-04-19T14:35:15.788Z,5.05
2023-04-19T14:37:42.816Z,6.97
2023-04-19T14:40:11.149Z,5.00
2023-04-19T14:42:38.328Z,3.58
2023-04-19T14:45:06.611Z,2.03
2023-04-19T14:47:33.791Z,2.58
2023-04-19T14:50:00.810Z,4.30
2023-04-19T14:52:27.750Z,4.35
2023-04-19T14:54:54.761Z,3.50
2023-04-19T14:57:21.756Z,4.88
2023-04-19T14:59:48.672Z,3.00
2023-04-19T15:02:15.670Z,3.80
2023-04-19T15:04:42.886Z,6.38
2023-04-19T15:07:11.061Z,2.47
2023-04-19T15:09:38.276Z,2.60
2023-04-19T15:12:05.789Z,4.15
2023-04-19T15:14:32.845Z,7.57
2023-04-19T15:17:00.058Z,4.32
2023-04-19T15:19:28.193Z,3.95
2023-04-19T15:21:55.264Z,6.90
2023-04-19T15:24:22.271Z,3.15
2023-04-19T15:26:49.215Z,4.18
2023-04-19T15:29:16.471Z,4.63
2023-04-19T15:31:43.741Z,3.42
2023-04-19T15:34:10.696Z,6.53
2023-04-19T15:36:37.764Z,3.95
2023-04-19T15:39:04.911Z,3.22
2023-04-19T15:41:32.101Z,4.10
2023-04-19T15:43:59.058Z,3.13
2023-04-19T15:46:26.051Z,4.10
2023-04-19T15:48:53.118Z,5.53
2023-04-19T15:51:20.215Z,2.78
2023-04-19T15:53:47.206Z,1.80
2023-04-19T15:56:14.242Z,2.85
2023-04-19T15:58:42.239Z,2.42
2023-04-19T16:01:13.176Z,4.30
2023-04-19T16:03:41.458Z,4.13
2023-04-19T16:06:08.647Z,3.65
2023-04-19T16:08:36.050Z,2.33
2023-04-19T16:11:03.462Z,2.22
2023-04-19T16:13:31.546Z,5.55
2023-04-19T16:15:58.782Z,3.38
2023-04-19T16:18:25.888Z,4.55
2023-04-19T16:20:54.640Z,3.47
2023-04-19T16:23:22.415Z,2.40
2023-04-19T16:25:49.491Z,4.70
2023-04-19T16:28:16.526Z,9.32
2023-04-19T16:30:45.804Z,3.90
2023-04-19T16:33:12.797Z,5.22
2023-04-19T16:35:39.900Z,3.30
2023-04-19T16:38:07.091Z,3.05
2023-04-19T16:40:34.225Z,2.20
2023-04-19T16:43:01.573Z,3.00
2023-04-19T16:45:28.668Z,2.22
2023-04-19T16:47:55.940Z,3.28
2023-04-19T16:50:23.122Z,2.97
2023-04-19T16:52:50.182Z,4.18
2023-04-19T16:55:17.145Z,2.45
2023-04-19T16:57:44.130Z,2.33
2023-04-19T17:00:13.306Z,2.72
2023-04-19T17:02:40.460Z,2.20
2023-04-19T17:05:08.156Z,3.28
2023-04-19T17:07:35.327Z,3.30
2023-04-19T17:10:02.283Z,4.40
2023-04-19T17:12:29.242Z,3.35
2023-04-19T17:14:56.302Z,3.13
2023-04-19T17:17:24.515Z,2.97
2023-04-19T17:19:51.665Z,2.15
2023-04-19T17:22:18.631Z,5.22
2023-04-19T17:24:45.633Z,1.65
2023-04-19T17:27:12.659Z,5.38
2023-04-19T17:29:39.734Z,4.88
2023-04-19T17:32:08.065Z,2.90
2023-04-19T17:34:36.919Z,2.53
2023-04-19T17:37:04.293Z,3.60
2023-04-19T17:39:31.259Z,4.82
2023-04-19T17:41:58.368Z,4.68
2023-04-19T17:44:25.922Z,3.83
2023-04-19T17:46:52.935Z,2.58
2023-04-19T17:49:21.170Z,2.45
2023-04-19T17:51:48.769Z,3.97
2023-04-19T17:54:16.308Z,3.20
2023-04-19T17:56:43.395Z,4.07
2023-04-19T17:59:10.501Z,2.50
2023-04-19T18:01:38.122Z,2.67
2023-04-19T18:04:05.702Z,3.50
2023-04-19T18:06:32.898Z,4.70
2023-04-19T18:09:00.505Z,3.10
2023-04-19T18:11:28.644Z,1.85
2023-04-19T18:13:55.890Z,3.85
2023-04-19T18:16:23.035Z,3.22
2023-04-19T18:18:50.475Z,2.45
2023-04-19T18:21:18.555Z,1.90
2023-04-19T18:23:45.768Z,4.13
2023-04-19T18:26:12.837Z,2.05
2023-04-19T18:28:40.326Z,2.03
2023-04-19T18:31:08.360Z,2.88
2023-04-19T18:33:35.457Z,3.63
2023-04-19T18:36:02.454Z,4.45
2023-04-19T18:38:29.446Z,5.07
2023-04-19T18:40:56.528Z,4.60
2023-04-19T18:43:24.727Z,2.50
2023-04-19T18:45:58.045Z,3.38
2023-04-19T18:48:28.156Z,4.90
2023-04-19T18:50:57.086Z,3.70
2023-04-19T18:53:28.510Z,2.30
2023-04-19T18:56:00.369Z,3.65
2023-04-19T18:58:28.218Z,4.45
2023-04-19T19:00:56.790Z,4.78
2023-04-19T19:05:55.592Z,3.67
2023-04-19T19:08:22.798Z,4.15
2023-04-19T19:11:14.237Z,2.80
2023-04-19T19:13:36.948Z,3.08
2023-04-19T19:16:05.670Z,3.10
2023-04-19T19:18:32.728Z,5.45
2023-04-19T19:21:00.285Z,9.10
2023-04-19T19:23:35.481Z,4.47
2023-04-19T19:28:31.171Z,2.95
2023-04-19T19:30:58.261Z,4.47
2023-04-19T19:33:28.356Z,3.38
2023-04-19T19:35:55.738Z,2.55
2023-04-19T19:38:22.756Z,5.55
2023-04-19T19:43:19.665Z,5.70
2023-04-19T19:45:46.792Z,5.82
2023-04-19T19:48:13.777Z,3.95
2023-04-19T19:53:11.033Z,2.72
2023-04-19T19:55:38.031Z,3.17
2023-04-19T20:00:45.073Z,3.42
2023-04-19T20:03:14.629Z,3.05
2023-04-19T20:05:41.957Z,5.93
2023-04-19T20:08:12.815Z,4.03
2023-04-19T20:10:42.470Z,6.07
2023-04-19T20:13:09.515Z,7.90
2023-04-19T20:15:37.946Z,3.85
2023-04-19T20:18:05.801Z,3.53
2023-04-19T20:20:32.877Z,8.02
2023-04-19T20:22:59.860Z,4.25
2023-04-19T20:25:27.022Z,2.50
2023-04-19T20:27:54.329Z,4.15
2023-04-19T20:30:21.468Z,6.35
2023-04-19T20:32:50.309Z,4.63
2023-04-19T20:35:18.080Z,4.20
2023-04-19T20:37:47.812Z,8.20
2023-04-19T20:40:16.225Z,3.70
2023-04-19T20:42:44.221Z,5.55
2023-04-19T20:45:14.236Z,10.40
2023-04-19T20:47:42.677Z,5.90
2023-04-19T20:50:10.432Z,2.75
2023-04-19T20:52:37.469Z,10.32
2023-04-19T20:55:04.884Z,8.35
2023-04-19T20:57:31.857Z,5.88
2023-04-19T20:59:59.601Z,2.92
2023-04-19T21:02:27.346Z,4.13
2023-04-19T21:04:54.393Z,5.03
2023-04-19T21:07:21.411Z,3.08
2023-04-19T21:09:48.451Z,8.77
2023-04-19T21:12:15.350Z,3.63
2023-04-19T21:14:42.340Z,8.32
2023-04-19T21:17:09.252Z,3.30
2023-04-19T21:19:37.368Z,3.28
2023-04-19T21:22:04.266Z,4.57
2023-04-19T21:24:31.233Z,4.43
2023-04-19T21:26:58.230Z,3.00
2023-04-19T21:29:25.324Z,3.55
2023-04-19T21:31:52.259Z,3.90
2023-04-19T21:34:19.282Z,8.10
2023-04-19T21:36:46.301Z,6.50
2023-04-19T21:39:13.279Z,2.15
2023-04-19T21:41:41.445Z,2.83
2023-04-19T21:44:08.453Z,7.05
2023-04-19T21:46:35.795Z,6.43
2023-04-19T21:49:02.827Z,5.55
2023-04-19T21:51:29.764Z,5.03
2023-04-19T21:53:56.749Z,7.70
2023-04-19T21:56:23.682Z,2.35
2023-04-19T21:58:50.698Z,8.20
2023-04-19T22:01:17.676Z,2.67
2023-04-19T22:03:45.586Z,6.32
2023-04-19T22:06:13.933Z,3.95
2023-04-19T22:08:42.384Z,6.70
2023-04-19T22:11:09.284Z,4.90
2023-04-19T22:13:37.376Z,3.17
2023-04-19T22:16:04.756Z,4.22
2023-04-19T22:18:34.192Z,4.68
2023-04-19T22:21:01.573Z,6.65
2023-04-19T22:23:28.557Z,4.38
2023-04-19T22:25:55.540Z,2.45
2023-04-19T22:28:22.486Z,2.25
2023-04-19T22:30:51.093Z,5.18
2023-04-19T22:33:18.868Z,3.92
2023-04-19T22:35:45.871Z,3.30
2023-04-19T22:38:13.295Z,4.07
2023-04-19T22:40:40.387Z,3.10
2023-04-19T22:43:07.278Z,3.83
2023-04-19T22:45:34.183Z,2.03
2023-04-19T22:48:01.647Z,2.42
2023-04-19T22:50:28.684Z,2.60
2023-04-19T22:52:55.635Z,3.13
2023-04-19T22:55:22.686Z,7.88
2023-04-19T22:57:49.632Z,1.67
2023-04-19T23:00:18.000Z,3.10
2023-04-19T23:02:45.032Z,4.70
2023-04-19T23:05:12.206Z,7.47
2023-04-19T23:07:41.867Z,3.88
2023-04-19T23:10:10.267Z,2.58
2023-04-19T23:12:38.770Z,2.70
2023-04-19T23:15:07.655Z,7.72
2023-04-19T23:17:34.709Z,3.53
2023-04-19T23:20:01.802Z,5.30
2023-04-19T23:22:28.867Z,5.78
2023-04-19T23:24:56.026Z,3.72
2023-04-19T23:27:22.945Z,3.28
2023-04-19T23:29:49.925Z,4.85
2023-04-19T23:32:18.189Z,3.67
2023-04-19T23:34:45.376Z,4.15
2023-04-19T23:37:13.599Z,3.55
2023-04-19T23:39:40.691Z,4.47
2023-04-19T23:42:07.644Z,6.95
2023-04-19T23:44:34.658Z,7.35
2023-04-19T23:47:04.552Z,5.10
2023-04-19T23:49:32.061Z,3.50
2023-04-19T23:51:59.002Z,3.63
2023-04-19T23:54:26.344Z,2.58
2023-04-19T23:56:53.636Z,3.03
2023-04-19T23:59:20.779Z,9.68
